sensor_id;sensor_type;location;lat;lon;timestamp;pressure;altitude;pressure_sealevel;temperature;humidity
13314;BME280;6725;48.112;11.604;2022-12-31T00:01:07;95198.69;;;12.28;100.00
13314;BME280;6725;48.112;11.604;2022-12-31T00:03:34;95204.59;;;12.46;100.00
13314;BME280;6725;48.112;11.604;2022-12-31T00:05:59;95209.22;;;12.49;100.00
13314;BME280;6725;48.112;11.604;2022-12-31T00:08:24;95222.66;;;12.63;100.00
13314;BME280;6725;48.112;11.604;2022-12-31T00:10:50;95231.56;;;12.67;100.00
13314;BME280;6725;48.112;11.604;2022-12-31T00:13:15;95230.75;;;12.70;100.00
13314;BME280;6725;48.112;11.604;2022-12-31T00:15:41;95226.59;;;12.62;100.00
13314;BME280;6725;48.112;11.604;2022-12-31T00:18:08;95226.97;;;12.64;100.00
13314;BME280;6725;48.112;11.604;2022-12-31T00:20:34;95219.91;;;12.63;100.00
13314;BME280;6725;48.112;11.604;2022-12-31T00:23:02;95223.03;;;12.65;100.00
13314;BME280;6725;48.112;11.604;2022-12-31T00:25:27;95233.47;;;12.70;100.00
13314;BME280;6725;48.112;11.604;2022-12-31T00:27:53;95220.72;;;12.83;100.00
13314;BME280;6725;48.112;11.604;2022-12-31T00:30:19;95230.94;;;13.02;100.00
13314;BME280;6725;48.112;11.604;2022-12-31T00:32:45;95232.66;;;12.92;100.00
13314;BME280;6725;48.112;11.604;2022-12-31T00:35:10;95222.75;;;12.79;100.00
13314;BME280;6725;48.112;11.604;2022-12-31T00:37:35;95209.06;;;12.79;100.00
13314;BME280;6725;48.112;11.604;2022-12-31T00:40:01;95228.38;;;12.91;100.00
13314;BME280;6725;48.112;11.604;2022-12-31T00:42:26;95226.47;;;12.88;100.00
13314;BME280;6725;48.112;11.604;2022-12-31T00:44:51;95228.66;;;12.97;100.00
13314;BME280;6725;48.112;11.604;2022-12-31T00:47:17;95250.13;;;13.02;100.00
13314;BME280;6725;48.112;11.604;2022-12-31T00:49:42;95256.66;;;13.08;100.00
13314;BME280;6725;48.112;11.604;2022-12-31T00:52:07;95253.28;;;13.20;100.00
13314;BME280;6725;48.112;11.604;2022-12-31T00:54:33;95263.03;;;13.21;100.00
13314;BME280;6725;48.112;11.604;2022-12-31T00:56:59;95260.53;;;13.30;100.00
13314;BME280;6725;48.112;11.604;2022-12-31T00:59:24;95279.63;;;13.33;100.00
13314;BME280;6725;48.112;11.604;2022-12-31T01:01:49;95285.25;;;13.26;100.00
13314;BME280;6725;48.112;11.604;2022-12-31T01:04:19;95285.34;;;13.23;100.00
13314;BME280;6725;48.112;11.604;2022-12-31T01:06:45;95291.66;;;13.20;100.00
13314;BME280;6725;48.112;11.604;2022-12-31T01:09:11;95294.75;;;13.22;100.00
13314;BME280;6725;48.112;11.604;2022-12-31T01:11:37;95294.84;;;13.18;100.00
13314;BME280;6725;48.112;11.604;2022-12-31T01:14:15;95300.09;;;13.29;100.00
13314;BME280;6725;48.112;11.604;2022-12-31T01:16:48;95293.06;;;13.28;100.00
13314;BME280;6725;48.112;11.604;2022-12-31T01:19:26;95302.34;;;13.34;100.00
13314;BME280;6725;48.112;11.604;2022-12-31T01:21:52;95314.59;;;13.49;100.00
13314;BME280;6725;48.112;11.604;2022-12-31T01:24:18;95312.88;;;13.55;100.00
13314;BME280;6725;48.112;11.604;2022-12-31T01:26:45;95325.91;;;13.51;100.00
13314;BME280;6725;48.112;11.604;2022-12-31T01:29:11;95329.28;;;13.59;100.00
13314;BME280;6725;48.112;11.604;2022-12-31T01:31:37;95348.81;;;13.61;100.00
13314;BME280;6725;48.112;11.604;2022-12-31T01:34:04;95348.13;;;13.57;100.00
13314;BME280;6725;48.112;11.604;2022-12-31T01:36:32;95349.75;;;13.54;100.00
13314;BME280;6725;48.112;11.604;2022-12-31T01:38:59;95349.69;;;13.58;100.00
13314;BME280;6725;48.112;11.604;2022-12-31T01:41:35;95359.50;;;13.75;100.00
13314;BME280;6725;48.112;11.604;2022-12-31T01:46:45;95367.88;;;13.87;100.00
13314;BME280;6725;48.112;11.604;2022-12-31T01:49:17;95368.22;;;13.89;100.00
13314;BME280;6725;48.112;11.604;2022-12-31T01:51:50;95367.38;;;13.92;100.00
13314;BME280;6725;48.112;11.604;2022-12-31T01:54:18;95376.47;;;13.89;100.00
13314;BME280;6725;48.112;11.604;2022-12-31T01:56:46;95368.41;;;13.98;100.00
13314;BME280;6725;48.112;11.604;2022-12-31T01:59:16;95372.38;;;13.97;100.00
13314;BME280;6725;48.112;11.604;2022-12-31T02:01:43;95373.16;;;13.98;100.00
13314;BME280;6725;48.112;11.604;2022-12-31T02:04:11;95372.69;;;13.99;100.00
13314;BME280;6725;48.112;11.604;2022-12-31T02:06:41;95377.78;;;14.01;100.00
13314;BME280;6725;48.112;11.604;2022-12-31T02:09:08;95376.50;;;14.05;100.00
13314;BME280;6725;48.112;11.604;2022-12-31T02:11:35;95382.00;;;14.05;100.00
13314;BME280;6725;48.112;11.604;2022-12-31T02:14:23;95381.16;;;14.08;100.00
13314;BME280;6725;48.112;11.604;2022-12-31T02:25:55;95372.00;;;13.95;100.00
13314;BME280;6725;48.112;11.604;2022-12-31T02:31:34;95379.91;;;13.93;100.00
13314;BME280;6725;48.112;11.604;2022-12-31T02:34:32;95370.97;;;13.89;100.00
13314;BME280;6725;48.112;11.604;2022-12-31T02:37:00;95368.50;;;13.95;100.00
13314;BME280;6725;48.112;11.604;2022-12-31T02:39:28;95376.59;;;14.02;100.00
13314;BME280;6725;48.112;11.604;2022-12-31T02:41:54;95372.69;;;13.99;100.00
13314;BME280;6725;48.112;11.604;2022-12-31T02:44:32;95386.00;;;14.01;100.00
13314;BME280;6725;48.112;11.604;2022-12-31T02:53:17;95384.69;;;14.09;100.00
13314;BME280;6725;48.112;11.604;2022-12-31T02:58:49;95382.69;;;14.09;100.00
13314;BME280;6725;48.112;11.604;2022-12-31T03:01:36;95388.19;;;14.09;100.00
13314;BME280;6725;48.112;11.604;2022-12-31T03:04:23;95386.13;;;14.13;100.00
13314;BME280;6725;48.112;11.604;2022-12-31T03:09:26;95400.22;;;14.15;100.00
13314;BME280;6725;48.112;11.604;2022-12-31T03:11:51;95399.38;;;14.18;100.00
13314;BME280;6725;48.112;11.604;2022-12-31T03:14:35;95402.84;;;14.22;100.00
13314;BME280;6725;48.112;11.604;2022-12-31T03:17:00;95399.59;;;14.27;100.00
13314;BME280;6725;48.112;11.604;2022-12-31T03:19:26;95392.88;;;14.28;100.00
13314;BME280;6725;48.112;11.604;2022-12-31T03:22:13;95392.03;;;14.31;100.00
13314;BME280;6725;48.112;11.604;2022-12-31T03:27:45;95414.91;;;14.44;100.00
13314;BME280;6725;48.112;11.604;2022-12-31T03:30:12;95423.84;;;14.48;100.00
13314;BME280;6725;48.112;11.604;2022-12-31T03:32:39;95412.00;;;14.51;100.00
13314;BME280;6725;48.112;11.604;2022-12-31T03:35:06;95420.94;;;14.55;100.00
13314;BME280;6725;48.112;11.604;2022-12-31T03:37:31;95422.03;;;14.58;100.00
13314;BME280;6725;48.112;11.604;2022-12-31T03:39:56;95434.50;;;14.62;100.00
13314;BME280;6725;48.112;11.604;2022-12-31T03:42:22;95430.91;;;14.65;100.00
13314;BME280;6725;48.112;11.604;2022-12-31T03:44:47;95432.03;;;14.68;100.00
13314;BME280;6725;48.112;11.604;2022-12-31T03:47:12;95439.84;;;14.69;100.00
13314;BME280;6725;48.112;11.604;2022-12-31T03:49:38;95416.13;;;14.75;100.00
13314;BME280;6725;48.112;11.604;2022-12-31T03:52:03;95445.19;;;14.76;100.00
13314;BME280;6725;48.112;11.604;2022-12-31T03:54:31;95438.97;;;14.72;100.00
13314;BME280;6725;48.112;11.604;2022-12-31T03:56:56;95438.28;;;14.68;100.00
13314;BME280;6725;48.112;11.604;2022-12-31T03:59:21;95433.66;;;14.65;100.00
13314;BME280;6725;48.112;11.604;2022-12-31T04:01:47;95444.47;;;14.72;100.00
13314;BME280;6725;48.112;11.604;2022-12-31T04:04:12;95441.91;;;14.81;100.00
13314;BME280;6725;48.112;11.604;2022-12-31T04:06:37;95438.06;;;14.79;100.00
13314;BME280;6725;48.112;11.604;2022-12-31T04:09:03;95459.19;;;14.82;100.00
13314;BME280;6725;48.112;11.604;2022-12-31T04:11:28;95456.78;;;14.84;100.00
13314;BME280;6725;48.112;11.604;2022-12-31T04:13:53;95458.31;;;14.85;100.00
13314;BME280;6725;48.112;11.604;2022-12-31T04:16:19;95459.34;;;14.75;100.00
13314;BME280;6725;48.112;11.604;2022-12-31T04:18:44;95461.84;;;14.85;100.00
13314;BME280;6725;48.112;11.604;2022-12-31T04:21:09;95474.66;;;14.92;100.00
13314;BME280;6725;48.112;11.604;2022-12-31T04:23:35;95465.97;;;14.93;100.00
13314;BME280;6725;48.112;11.604;2022-12-31T04:26:00;95479.22;;;14.98;100.00
13314;BME280;6725;48.112;11.604;2022-12-31T04:28:25;95485.41;;;15.02;100.00
13314;BME280;6725;48.112;11.604;2022-12-31T04:30:51;95488.91;;;15.03;100.00
13314;BME280;6725;48.112;11.604;2022-12-31T04:33:16;95484.53;;;15.05;100.00
13314;BME280;6725;48.112;11.604;2022-12-31T04:35:42;95492.78;;;15.05;100.00
13314;BME280;6725;48.112;11.604;2022-12-31T04:38:08;95494.00;;;15.04;100.00
13314;BME280;6725;48.112;11.604;2022-12-31T04:40:33;95499.00;;;15.09;100.00
13314;BME280;6725;48.112;11.604;2022-12-31T04:42:58;95491.59;;;15.06;100.00
13314;BME280;6725;48.112;11.604;2022-12-31T04:45:24;95493.25;;;15.04;100.00
13314;BME280;6725;48.112;11.604;2022-12-31T04:47:49;95492.28;;;15.10;100.00
13314;BME280;6725;48.112;11.604;2022-12-31T04:50:15;95491.06;;;15.11;100.00
13314;BME280;6725;48.112;11.604;2022-12-31T04:52:40;95493.75;;;15.15;100.00
13314;BME280;6725;48.112;11.604;2022-12-31T04:55:05;95499.06;;;15.22;100.00
13314;BME280;6725;48.112;11.604;2022-12-31T04:57:31;95501.38;;;15.23;100.00
13314;BME280;6725;48.112;11.604;2022-12-31T04:59:56;95510.84;;;15.22;100.00
13314;BME280;6725;48.112;11.604;2022-12-31T05:02:22;95500.88;;;15.28;100.00
13314;BME280;6725;48.112;11.604;2022-12-31T05:04:47;95513.78;;;15.31;100.00
13314;BME280;6725;48.112;11.604;2022-12-31T05:07:12;95509.31;;;15.37;100.00
13314;BME280;6725;48.112;11.604;2022-12-31T05:09:38;95511.38;;;15.33;100.00
13314;BME280;6725;48.112;11.604;2022-12-31T05:12:03;95505.88;;;15.33;100.00
13314;BME280;6725;48.112;11.604;2022-12-31T05:14:29;95506.50;;;15.41;100.00
13314;BME280;6725;48.112;11.604;2022-12-31T05:16:54;95510.38;;;15.43;100.00
13314;BME280;6725;48.112;11.604;2022-12-31T05:19:19;95515.09;;;15.43;100.00
13314;BME280;6725;48.112;11.604;2022-12-31T05:21:45;95509.50;;;15.46;100.00
13314;BME280;6725;48.112;11.604;2022-12-31T05:24:30;95521.72;;;15.45;100.00
13314;BME280;6725;48.112;11.604;2022-12-31T05:26:55;95517.09;;;15.42;100.00
13314;BME280;6725;48.112;11.604;2022-12-31T05:29:21;95519.28;;;15.31;100.00
13314;BME280;6725;48.112;11.604;2022-12-31T05:31:46;95521.78;;;15.26;100.00
13314;BME280;6725;48.112;11.604;2022-12-31T05:34:11;95522.81;;;15.16;100.00
13314;BME280;6725;48.112;11.604;2022-12-31T05:36:37;95530.38;;;15.12;100.00
13314;BME280;6725;48.112;11.604;2022-12-31T05:39:02;95524.63;;;15.06;100.00
13314;BME280;6725;48.112;11.604;2022-12-31T05:41:27;95533.72;;;15.03;100.00
13314;BME280;6725;48.112;11.604;2022-12-31T05:43:53;95533.34;;;15.01;100.00
13314;BME280;6725;48.112;11.604;2022-12-31T05:46:18;95530.59;;;15.01;100.00
13314;BME280;6725;48.112;11.604;2022-12-31T05:48:43;95520.47;;;14.98;100.00
13314;BME280;6725;48.112;11.604;2022-12-31T05:51:09;95509.97;;;14.93;100.00
13314;BME280;6725;48.112;11.604;2022-12-31T05:53:34;95513.09;;;14.95;100.00
13314;BME280;6725;48.112;11.604;2022-12-31T05:55:59;95519.50;;;14.89;100.00
13314;BME280;6725;48.112;11.604;2022-12-31T05:58:25;95524.16;;;14.92;100.00
13314;BME280;6725;48.112;11.604;2022-12-31T06:00:51;95523.13;;;14.86;100.00
13314;BME280;6725;48.112;11.604;2022-12-31T06:03:16;95522.50;;;14.78;100.00
13314;BME280;6725;48.112;11.604;2022-12-31T06:05:42;95519.56;;;14.69;100.00
13314;BME280;6725;48.112;11.604;2022-12-31T06:08:08;95510.19;;;14.67;100.00
13314;BME280;6725;48.112;11.604;2022-12-31T06:10:34;95520.06;;;14.64;100.00
13314;BME280;6725;48.112;11.604;2022-12-31T06:12:59;95524.16;;;14.56;100.00
13314;BME280;6725;48.112;11.604;2022-12-31T06:15:25;95532.22;;;14.47;100.00
13314;BME280;6725;48.112;11.604;2022-12-31T06:17:50;95531.22;;;14.18;100.00
13314;BME280;6725;48.112;11.604;2022-12-31T06:20:15;95535.13;;;14.17;100.00
13314;BME280;6725;48.112;11.604;2022-12-31T06:22:41;95527.06;;;14.10;100.00
13314;BME280;6725;48.112;11.604;2022-12-31T06:25:06;95536.06;;;14.11;100.00
13314;BME280;6725;48.112;11.604;2022-12-31T06:27:32;95536.16;;;14.07;100.00
13314;BME280;6725;48.112;11.604;2022-12-31T06:29:57;95531.50;;;14.04;100.00
13314;BME280;6725;48.112;11.604;2022-12-31T06:32:22;95542.94;;;13.99;100.00
13314;BME280;6725;48.112;11.604;2022-12-31T06:34:48;95546.19;;;13.94;100.00
13314;BME280;6725;48.112;11.604;2022-12-31T06:37:13;95545.91;;;13.89;100.00
13314;BME280;6725;48.112;11.604;2022-12-31T06:39:38;95553.84;;;13.83;100.00
13314;BME280;6725;48.112;11.604;2022-12-31T06:42:04;95560.16;;;13.80;100.00
13314;BME280;6725;48.112;11.604;2022-12-31T06:44:30;95566.25;;;13.91;100.00
13314;BME280;6725;48.112;11.604;2022-12-31T06:46:55;95567.69;;;13.76;100.00
13314;BME280;6725;48.112;11.604;2022-12-31T06:49:20;95569.59;;;13.79;100.00
13314;BME280;6725;48.112;11.604;2022-12-31T06:51:46;95570.31;;;13.83;100.00
13314;BME280;6725;48.112;11.604;2022-12-31T06:54:12;95562.09;;;13.83;100.00
13314;BME280;6725;48.112;11.604;2022-12-31T06:56:38;95568.78;;;13.82;100.00
13314;BME280;6725;48.112;11.604;2022-12-31T06:59:03;95565.06;;;13.92;100.00
13314;BME280;6725;48.112;11.604;2022-12-31T07:01:39;95561.28;;;14.06;100.00
13314;BME280;6725;48.112;11.604;2022-12-31T07:07:28;95565.94;;;14.09;100.00
13314;BME280;6725;48.112;11.604;2022-12-31T07:18:27;95581.69;;;14.05;100.00
13314;BME280;6725;48.112;11.604;2022-12-31T07:20:57;95580.91;;;14.04;100.00
13314;BME280;6725;48.112;11.604;2022-12-31T07:23:23;95585.00;;;13.96;100.00
13314;BME280;6725;48.112;11.604;2022-12-31T07:26:03;95594.91;;;13.90;100.00
13314;BME280;6725;48.112;11.604;2022-12-31T07:29:30;95593.41;;;13.86;100.00
13314;BME280;6725;48.112;11.604;2022-12-31T07:32:34;95587.63;;;13.80;100.00
13314;BME280;6725;48.112;11.604;2022-12-31T07:35:00;95601.72;;;13.82;100.00
13314;BME280;6725;48.112;11.604;2022-12-31T07:40:19;95603.03;;;13.97;100.00
13314;BME280;6725;48.112;11.604;2022-12-31T07:43:09;95607.69;;;14.00;100.00
13314;BME280;6725;48.112;11.604;2022-12-31T07:45:51;95615.41;;;14.05;100.00
13314;BME280;6725;48.112;11.604;2022-12-31T07:48:26;95619.53;;;13.94;100.00
13314;BME280;6725;48.112;11.604;2022-12-31T07:50:52;95619.19;;;13.92;100.00
13314;BME280;6725;48.112;11.604;2022-12-31T07:53:19;95626.66;;;13.91;100.00
13314;BME280;6725;48.112;11.604;2022-12-31T07:55:45;95632.13;;;13.91;100.00
13314;BME280;6725;48.112;11.604;2022-12-31T08:01:21;95637.50;;;13.98;100.00
13314;BME280;6725;48.112;11.604;2022-12-31T08:04:09;95636.97;;;14.07;100.00
13314;BME280;6725;48.112;11.604;2022-12-31T08:09:46;95641.69;;;14.29;100.00
13314;BME280;6725;48.112;11.604;2022-12-31T08:12:14;95643.13;;;14.14;100.00
13314;BME280;6725;48.112;11.604;2022-12-31T08:14:45;95641.00;;;14.25;100.00
13314;BME280;6725;48.112;11.604;2022-12-31T08:17:12;95646.50;;;14.25;100.00
13314;BME280;6725;48.112;11.604;2022-12-31T08:19:38;95652.28;;;14.50;100.00
13314;BME280;6725;48.112;11.604;2022-12-31T08:30:20;95644.75;;;14.74;100.00
13314;BME280;6725;48.112;11.604;2022-12-31T08:38:25;95650.13;;;15.16;100.00
13314;BME280;6725;48.112;11.604;2022-12-31T08:43:47;95651.59;;;15.21;100.00
13314;BME280;6725;48.112;11.604;2022-12-31T08:46:20;95645.69;;;15.22;100.00
13314;BME280;6725;48.112;11.604;2022-12-31T08:48:48;95641.28;;;15.25;100.00
13314;BME280;6725;48.112;11.604;2022-12-31T08:51:18;95649.56;;;15.76;100.00
13314;BME280;6725;48.112;11.604;2022-12-31T08:53:44;95640.06;;;16.42;100.00
13314;BME280;6725;48.112;11.604;2022-12-31T08:56:30;95635.03;;;17.60;100.00
13314;BME280;6725;48.112;11.604;2022-12-31T08:58:59;95629.84;;;18.67;100.00
13314;BME280;6725;48.112;11.604;2022-12-31T09:01:34;95626.53;;;19.55;100.00
13314;BME280;6725;48.112;11.604;2022-12-31T09:04:14;95630.53;;;20.33;100.00
13314;BME280;6725;48.112;11.604;2022-12-31T09:06:51;95634.38;;;19.87;100.00
13314;BME280;6725;48.112;11.604;2022-12-31T09:12:11;95639.44;;;20.28;100.00
13314;BME280;6725;48.112;11.604;2022-12-31T09:14:59;95650.22;;;20.35;100.00
13314;BME280;6725;48.112;11.604;2022-12-31T09:17:43;95650.13;;;19.99;100.00
13314;BME280;6725;48.112;11.604;2022-12-31T09:20:15;95652.34;;;19.43;100.00
13314;BME280;6725;48.112;11.604;2022-12-31T09:22:41;95653.16;;;19.52;100.00
13314;BME280;6725;48.112;11.604;2022-12-31T09:27:37;95647.84;;;19.15;100.00
13314;BME280;6725;48.112;11.604;2022-12-31T09:30:07;95639.63;;;19.02;100.00
13314;BME280;6725;48.112;11.604;2022-12-31T09:35:53;95643.69;;;19.32;100.00
13314;BME280;6725;48.112;11.604;2022-12-31T09:38:29;95638.97;;;19.20;100.00
13314;BME280;6725;48.112;11.604;2022-12-31T09:49:10;95635.41;;;18.21;100.00
13314;BME280;6725;48.112;11.604;2022-12-31T09:52:17;95637.69;;;18.69;100.00
13314;BME280;6725;48.112;11.604;2022-12-31T10:06:22;95631.75;;;21.22;86.39
13314;BME280;6725;48.112;11.604;2022-12-31T10:20:31;95621.00;;;23.22;72.18
13314;BME280;6725;48.112;11.604;2022-12-31T10:28:14;95616.22;;;23.51;69.59
13314;BME280;6725;48.112;11.604;2022-12-31T10:30:48;95619.34;;;23.01;69.64
13314;BME280;6725;48.112;11.604;2022-12-31T10:36:17;95618.34;;;22.27;73.23
13314;BME280;6725;48.112;11.604;2022-12-31T11:15:46;95604.72;;;19.66;100.00
13314;BME280;6725;48.112;11.604;2022-12-31T11:18:37;95588.09;;;19.66;100.00
13314;BME280;6725;48.112;11.604;2022-12-31T11:27:00;95583.78;;;19.65;100.00
13314;BME280;6725;48.112;11.604;2022-12-31T11:30:00;95573.00;;;19.58;100.00
13314;BME280;6725;48.112;11.604;2022-12-31T11:36:08;95572.44;;;19.81;97.96
13314;BME280;6725;48.112;11.604;2022-12-31T11:41:22;95569.13;;;20.04;96.69
13314;BME280;6725;48.112;11.604;2022-12-31T11:44:02;95565.41;;;20.07;96.90
13314;BME280;6725;48.112;11.604;2022-12-31T11:46:46;95559.59;;;20.23;95.93
13314;BME280;6725;48.112;11.604;2022-12-31T11:55:10;95553.75;;;20.48;91.56
13314;BME280;6725;48.112;11.604;2022-12-31T11:57:45;95539.88;;;20.39;93.08
13314;BME280;6725;48.112;11.604;2022-12-31T12:00:24;95538.63;;;20.49;93.04
13314;BME280;6725;48.112;11.604;2022-12-31T12:02:53;95540.16;;;20.68;93.26
13314;BME280;6725;48.112;11.604;2022-12-31T12:05:22;95542.31;;;20.73;90.62
13314;BME280;6725;48.112;11.604;2022-12-31T12:07:48;95534.13;;;20.70;92.07
13314;BME280;6725;48.112;11.604;2022-12-31T12:10:21;95533.63;;;20.80;90.90
13314;BME280;6725;48.112;11.604;2022-12-31T12:12:48;95539.81;;;20.93;88.04
13314;BME280;6725;48.112;11.604;2022-12-31T12:15:28;95532.75;;;20.92;89.84
13314;BME280;6725;48.112;11.604;2022-12-31T12:18:03;95536.28;;;20.93;88.21
13314;BME280;6725;48.112;11.604;2022-12-31T12:20:33;95530.88;;;20.80;88.86
13314;BME280;6725;48.112;11.604;2022-12-31T12:23:02;95528.09;;;20.89;88.13
13314;BME280;6725;48.112;11.604;2022-12-31T12:25:40;95525.00;;;20.87;89.97
13314;BME280;6725;48.112;11.604;2022-12-31T12:28:24;95526.84;;;20.90;90.21
13314;BME280;6725;48.112;11.604;2022-12-31T12:33:20;95532.41;;;20.90;89.09
13314;BME280;6725;48.112;11.604;2022-12-31T12:35:46;95534.59;;;20.95;86.78
13314;BME280;6725;48.112;11.604;2022-12-31T12:38:18;95532.75;;;20.92;88.01
13314;BME280;6725;48.112;11.604;2022-12-31T12:43:28;95523.16;;;20.93;89.34
13314;BME280;6725;48.112;11.604;2022-12-31T12:46:01;95536.41;;;20.98;87.54
13314;BME280;6725;48.112;11.604;2022-12-31T12:48:36;95525.75;;;21.06;86.76
13314;BME280;6725;48.112;11.604;2022-12-31T13:02:07;95523.19;;;20.75;90.17
13314;BME280;6725;48.112;11.604;2022-12-31T13:05:25;95519.16;;;20.76;88.23
13314;BME280;6725;48.112;11.604;2022-12-31T13:16:30;95520.44;;;20.57;89.77
13314;BME280;6725;48.112;11.604;2022-12-31T13:19:07;95525.38;;;20.44;89.19
13314;BME280;6725;48.112;11.604;2022-12-31T13:21:53;95533.09;;;20.49;89.76
13314;BME280;6725;48.112;11.604;2022-12-31T13:24:27;95527.22;;;20.38;92.06
13314;BME280;6725;48.112;11.604;2022-12-31T13:29:47;95521.38;;;20.27;93.38
13314;BME280;6725;48.112;11.604;2022-12-31T13:32:19;95521.69;;;20.20;93.59
13314;BME280;6725;48.112;11.604;2022-12-31T13:34:48;95517.97;;;20.14;94.23
13314;BME280;6725;48.112;11.604;2022-12-31T13:37:32;95511.50;;;20.08;94.30
13314;BME280;6725;48.112;11.604;2022-12-31T13:40:05;95526.28;;;20.05;95.29
13314;BME280;6725;48.112;11.604;2022-12-31T13:42:42;95521.28;;;19.73;100.00
13314;BME280;6725;48.112;11.604;2022-12-31T13:45:16;95524.28;;;19.39;100.00
13314;BME280;6725;48.112;11.604;2022-12-31T13:47:45;95508.75;;;19.11;100.00
13314;BME280;6725;48.112;11.604;2022-12-31T13:53:04;95531.34;;;18.79;100.00
13314;BME280;6725;48.112;11.604;2022-12-31T13:55:35;95521.84;;;18.58;100.00
13314;BME280;6725;48.112;11.604;2022-12-31T13:58:22;95523.41;;;18.38;100.00
13314;BME280;6725;48.112;11.604;2022-12-31T14:04:10;95531.25;;;18.39;100.00
13314;BME280;6725;48.112;11.604;2022-12-31T14:06:59;95528.28;;;18.12;100.00
13314;BME280;6725;48.112;11.604;2022-12-31T14:09:29;95534.81;;;18.06;100.00
13314;BME280;6725;48.112;11.604;2022-12-31T14:17:18;95546.25;;;17.83;100.00
13314;BME280;6725;48.112;11.604;2022-12-31T14:20:16;95553.72;;;17.61;100.00
13314;BME280;6725;48.112;11.604;2022-12-31T14:23:02;95555.03;;;17.56;100.00
13314;BME280;6725;48.112;11.604;2022-12-31T14:26:25;95551.19;;;17.54;100.00
13314;BME280;6725;48.112;11.604;2022-12-31T14:28:43;95551.63;;;17.27;100.00
13314;BME280;6725;48.112;11.604;2022-12-31T14:34:24;95558.09;;;16.96;100.00
13314;BME280;6725;48.112;11.604;2022-12-31T14:39:40;95565.69;;;16.79;100.00
13314;BME280;6725;48.112;11.604;2022-12-31T14:42:19;95573.19;;;16.66;100.00
13314;BME280;6725;48.112;11.604;2022-12-31T14:44:58;95571.06;;;16.58;100.00
13314;BME280;6725;48.112;11.604;2022-12-31T14:50:11;95587.50;;;16.49;100.00
13314;BME280;6725;48.112;11.604;2022-12-31T14:55:28;95600.28;;;16.26;100.00
13314;BME280;6725;48.112;11.604;2022-12-31T14:58:00;95598.13;;;16.18;100.00
13314;BME280;6725;48.112;11.604;2022-12-31T15:05:37;95599.47;;;15.97;100.00
13314;BME280;6725;48.112;11.604;2022-12-31T15:11:35;95597.41;;;15.85;100.00
13314;BME280;6725;48.112;11.604;2022-12-31T15:25:33;95588.13;;;15.47;100.00
13314;BME280;6725;48.112;11.604;2022-12-31T15:28:04;95584.31;;;15.41;100.00
13314;BME280;6725;48.112;11.604;2022-12-31T15:31:18;95601.06;;;15.31;100.00
13314;BME280;6725;48.112;11.604;2022-12-31T15:34:34;95597.69;;;15.23;100.00
13314;BME280;6725;48.112;11.604;2022-12-31T15:37:03;95606.09;;;15.16;100.00
13314;BME280;6725;48.112;11.604;2022-12-31T15:42:00;95618.97;;;15.03;100.00
13314;BME280;6725;48.112;11.604;2022-12-31T15:44:34;95620.75;;;14.94;100.00
13314;BME280;6725;48.112;11.604;2022-12-31T15:47:34;95611.47;;;14.88;100.00
13314;BME280;6725;48.112;11.604;2022-12-31T15:50:05;95606.25;;;14.74;100.00
13314;BME280;6725;48.112;11.604;2022-12-31T15:52:41;95615.09;;;14.65;100.00
13314;BME280;6725;48.112;11.604;2022-12-31T15:55:16;95598.38;;;14.56;100.00
13314;BME280;6725;48.112;11.604;2022-12-31T15:57:44;95598.94;;;14.48;100.00
13314;BME280;6725;48.112;11.604;2022-12-31T16:00:20;95611.91;;;14.47;100.00
13314;BME280;6725;48.112;11.604;2022-12-31T16:02:47;95610.16;;;14.37;100.00
13314;BME280;6725;48.112;11.604;2022-12-31T16:05:19;95606.00;;;14.29;100.00
13314;BME280;6725;48.112;11.604;2022-12-31T16:07:46;95614.22;;;14.29;100.00
13314;BME280;6725;48.112;11.604;2022-12-31T16:10:21;95605.00;;;14.16;100.00
13314;BME280;6725;48.112;11.604;2022-12-31T16:12:48;95600.28;;;13.97;100.00
13314;BME280;6725;48.112;11.604;2022-12-31T16:15:20;95612.56;;;14.12;100.00
13314;BME280;6725;48.112;11.604;2022-12-31T16:17:57;95610.75;;;14.02;100.00
13314;BME280;6725;48.112;11.604;2022-12-31T16:20:28;95623.06;;;13.94;100.00
13314;BME280;6725;48.112;11.604;2022-12-31T16:22:58;95613.50;;;14.02;100.00
13314;BME280;6725;48.112;11.604;2022-12-31T16:25:24;95617.34;;;13.85;100.00
13314;BME280;6725;48.112;11.604;2022-12-31T16:27:51;95609.69;;;13.73;100.00
13314;BME280;6725;48.112;11.604;2022-12-31T16:30:19;95616.09;;;13.67;100.00
13314;BME280;6725;48.112;11.604;2022-12-31T16:32:47;95605.94;;;13.64;100.00
13314;BME280;6725;48.112;11.604;2022-12-31T16:35:34;95606.84;;;13.57;100.00
13314;BME280;6725;48.112;11.604;2022-12-31T16:40:32;95597.53;;;13.51;100.00
13314;BME280;6725;48.112;11.604;2022-12-31T16:42:57;95608.69;;;13.41;100.00
13314;BME280;6725;48.112;11.604;2022-12-31T16:45:34;95607.66;;;13.31;100.00
13314;BME280;6725;48.112;11.604;2022-12-31T16:48:15;95596.41;;;13.22;100.00
13314;BME280;6725;48.112;11.604;2022-12-31T16:50:43;95599.31;;;13.11;100.00
13314;BME280;6725;48.112;11.604;2022-12-31T16:53:11;95598.63;;;13.30;100.00
13314;BME280;6725;48.112;11.604;2022-12-31T16:55:38;95603.56;;;13.16;100.00
13314;BME280;6725;48.112;11.604;2022-12-31T16:58:23;95607.25;;;13.06;100.00
13314;BME280;6725;48.112;11.604;2022-12-31T17:00:52;95604.97;;;13.01;100.00
13314;BME280;6725;48.112;11.604;2022-12-31T17:03:22;95607.66;;;13.04;100.00
13314;BME280;6725;48.112;11.604;2022-12-31T17:11:35;95592.66;;;12.82;100.00
13314;BME280;6725;48.112;11.604;2022-12-31T17:16:37;95594.63;;;12.82;100.00
13314;BME280;6725;48.112;11.604;2022-12-31T17:19:04;95594.66;;;12.78;100.00
13314;BME280;6725;48.112;11.604;2022-12-31T17:21:30;95590.72;;;12.79;100.00
13314;BME280;6725;48.112;11.604;2022-12-31T17:24:04;95587.78;;;12.67;100.00